sensor_id;sensor_type;location;lat;lon;timestamp;pressure;altitude;pressure_sealevel;temperature;humidity
57847;BME280;43675;50.030;21.952;2022-09-01T00:01:57;98996.52;;;13.82;57.49
57847;BME280;43675;50.030;21.952;2022-09-01T00:04:24;99004.39;;;13.83;57.48
57847;BME280;43675;50.030;21.952;2022-09-01T00:06:50;98993.88;;;13.84;57.43
57847;BME280;43675;50.030;21.952;2022-09-01T00:09:18;99000.10;;;13.85;57.41
57847;BME280;43675;50.030;21.952;2022-09-01T00:11:48;99004.67;;;13.84;57.46
57847;BME280;43675;50.030;21.952;2022-09-01T00:14:13;98999.73;;;13.81;57.43
57847;BME280;43675;50.030;21.952;2022-09-01T00:16:39;99002.13;;;13.80;57.76
57847;BME280;43675;50.030;21.952;2022-09-01T00:19:05;99001.23;;;13.77;58.08
57847;BME280;43675;50.030;21.952;2022-09-01T00:21:36;99002.74;;;13.73;58.33
57847;BME280;43675;50.030;21.952;2022-09-01T00:24:01;99003.14;;;13.67;58.71
57847;BME280;43675;50.030;21.952;2022-09-01T00:26:27;98994.53;;;13.59;58.96
57847;BME280;43675;50.030;21.952;2022-09-01T00:29:01;98999.70;;;13.51;59.08
57847;BME280;43675;50.030;21.952;2022-09-01T00:31:27;98994.61;;;13.43;59.42
57847;BME280;43675;50.030;21.952;2022-09-01T00:33:53;98993.56;;;13.35;59.67
57847;BME280;43675;50.030;21.952;2022-09-01T00:36:19;98997.38;;;13.28;59.84
57847;BME280;43675;50.030;21.952;2022-09-01T00:38:46;99002.02;;;13.20;59.92
57847;BME280;43675;50.030;21.952;2022-09-01T00:41:12;98996.16;;;13.14;60.11
57847;BME280;43675;50.030;21.952;2022-09-01T00:43:43;98995.69;;;13.08;60.07
57847;BME280;43675;50.030;21.952;2022-09-01T00:46:11;98996.86;;;13.03;60.16
57847;BME280;43675;50.030;21.952;2022-09-01T00:48:58;98992.38;;;12.97;60.27
57847;BME280;43675;50.030;21.952;2022-09-01T00:51:26;98999.25;;;12.93;60.28
57847;BME280;43675;50.030;21.952;2022-09-01T00:53:52;98999.53;;;12.85;60.42
57847;BME280;43675;50.030;21.952;2022-09-01T00:56:18;99006.09;;;12.80;60.56
57847;BME280;43675;50.030;21.952;2022-09-01T00:58:58;99007.89;;;12.77;60.56
57847;BME280;43675;50.030;21.952;2022-09-01T01:01:24;99014.31;;;12.76;60.57
57847;BME280;43675;50.030;21.952;2022-09-01T01:03:50;99015.66;;;12.76;60.50
57847;BME280;43675;50.030;21.952;2022-09-01T01:06:16;99012.00;;;12.79;60.49
57847;BME280;43675;50.030;21.952;2022-09-01T01:08:44;99010.73;;;12.82;60.46
57847;BME280;43675;50.030;21.952;2022-09-01T01:11:14;99011.66;;;12.85;60.68
57847;BME280;43675;50.030;21.952;2022-09-01T01:13:56;99011.87;;;12.84;60.92
57847;BME280;43675;50.030;21.952;2022-09-01T01:16:18;99009.10;;;12.81;61.16
57847;BME280;43675;50.030;21.952;2022-09-01T01:18:44;99006.16;;;12.73;61.46
57847;BME280;43675;50.030;21.952;2022-09-01T01:21:20;99006.58;;;12.70;61.71
57847;BME280;43675;50.030;21.952;2022-09-01T01:23:46;99004.27;;;12.65;61.83
57847;BME280;43675;50.030;21.952;2022-09-01T01:26:11;99005.75;;;12.61;61.64
57847;BME280;43675;50.030;21.952;2022-09-01T01:28:39;99007.92;;;12.61;61.46
57847;BME280;43675;50.030;21.952;2022-09-01T01:31:14;99000.22;;;12.65;61.47
57847;BME280;43675;50.030;21.952;2022-09-01T01:33:49;98993.25;;;12.66;61.79
57847;BME280;43675;50.030;21.952;2022-09-01T01:36:20;99000.44;;;12.63;61.92
57847;BME280;43675;50.030;21.952;2022-09-01T01:38:48;98999.02;;;12.61;61.84
57847;BME280;43675;50.030;21.952;2022-09-01T01:41:16;99002.98;;;12.58;61.95
57847;BME280;43675;50.030;21.952;2022-09-01T01:43:42;98996.14;;;12.56;62.23
57847;BME280;43675;50.030;21.952;2022-09-01T01:46:09;98996.08;;;12.53;62.26
57847;BME280;43675;50.030;21.952;2022-09-01T01:48:37;98998.45;;;12.52;62.36
57847;BME280;43675;50.030;21.952;2022-09-01T01:51:04;98996.20;;;12.49;62.43
57847;BME280;43675;50.030;21.952;2022-09-01T01:53:31;98993.96;;;12.46;62.63
57847;BME280;43675;50.030;21.952;2022-09-01T01:55:56;98994.61;;;12.42;62.63
57847;BME280;43675;50.030;21.952;2022-09-01T01:58:29;98987.57;;;12.41;62.58
57847;BME280;43675;50.030;21.952;2022-09-01T02:01:01;98992.36;;;12.39;62.56
57847;BME280;43675;50.030;21.952;2022-09-01T02:03:32;98984.36;;;12.41;62.51
57847;BME280;43675;50.030;21.952;2022-09-01T02:05:59;98986.53;;;12.42;62.47
57847;BME280;43675;50.030;21.952;2022-09-01T02:08:24;98982.81;;;12.43;62.49
57847;BME280;43675;50.030;21.952;2022-09-01T02:10:51;98984.44;;;12.44;62.46
57847;BME280;43675;50.030;21.952;2022-09-01T02:13:19;98982.57;;;12.44;62.47
57847;BME280;43675;50.030;21.952;2022-09-01T02:15:49;98989.61;;;12.45;62.43
57847;BME280;43675;50.030;21.952;2022-09-01T02:18:17;98983.19;;;12.46;62.43
57847;BME280;43675;50.030;21.952;2022-09-01T02:20:50;98985.78;;;12.44;62.44
57847;BME280;43675;50.030;21.952;2022-09-01T02:23:13;98985.78;;;12.44;62.51
57847;BME280;43675;50.030;21.952;2022-09-01T02:25:42;98979.50;;;12.41;62.71
57847;BME280;43675;50.030;21.952;2022-09-01T02:28:09;98984.50;;;12.37;62.77
57847;BME280;43675;50.030;21.952;2022-09-01T02:30:35;98981.11;;;12.32;62.88
57847;BME280;43675;50.030;21.952;2022-09-01T02:33:01;98980.20;;;12.29;62.98
57847;BME280;43675;50.030;21.952;2022-09-01T02:35:26;98981.48;;;12.27;63.10
57847;BME280;43675;50.030;21.952;2022-09-01T02:37:52;98983.03;;;12.25;63.21
57847;BME280;43675;50.030;21.952;2022-09-01T02:40:17;98981.05;;;12.23;63.28
57847;BME280;43675;50.030;21.952;2022-09-01T02:42:50;98976.95;;;12.21;63.51
57847;BME280;43675;50.030;21.952;2022-09-01T02:45:15;98978.73;;;12.18;63.74
57847;BME280;43675;50.030;21.952;2022-09-01T02:47:42;98981.11;;;12.17;63.80
57847;BME280;43675;50.030;21.952;2022-09-01T02:50:14;98979.97;;;12.15;63.85
57847;BME280;43675;50.030;21.952;2022-09-01T02:52:40;98979.59;;;12.12;63.99
57847;BME280;43675;50.030;21.952;2022-09-01T02:55:07;98978.48;;;12.10;64.12
57847;BME280;43675;50.030;21.952;2022-09-01T02:57:33;98979.72;;;12.08;64.19
57847;BME280;43675;50.030;21.952;2022-09-01T02:59:59;98981.81;;;12.06;64.24
57847;BME280;43675;50.030;21.952;2022-09-01T03:02:31;98976.12;;;12.05;64.32
57847;BME280;43675;50.030;21.952;2022-09-01T03:04:57;98976.87;;;12.03;64.42
57847;BME280;43675;50.030;21.952;2022-09-01T03:07:22;98974.90;;;12.01;64.57
57847;BME280;43675;50.030;21.952;2022-09-01T03:09:55;98972.73;;;12.00;64.55
57847;BME280;43675;50.030;21.952;2022-09-01T03:12:20;98968.09;;;11.98;64.63
57847;BME280;43675;50.030;21.952;2022-09-01T03:14:46;98962.09;;;11.96;64.65
57847;BME280;43675;50.030;21.952;2022-09-01T03:17:11;98972.06;;;11.96;64.73
57847;BME280;43675;50.030;21.952;2022-09-01T03:19:37;98969.26;;;11.93;64.80
57847;BME280;43675;50.030;21.952;2022-09-01T03:22:03;98964.83;;;11.90;64.98
57847;BME280;43675;50.030;21.952;2022-09-01T03:24:28;98964.24;;;11.88;65.08
57847;BME280;43675;50.030;21.952;2022-09-01T03:26:54;98966.30;;;11.85;65.18
57847;BME280;43675;50.030;21.952;2022-09-01T03:29:19;98963.81;;;11.84;65.34
57847;BME280;43675;50.030;21.952;2022-09-01T03:31:45;98964.26;;;11.81;65.37
57847;BME280;43675;50.030;21.952;2022-09-01T03:34:11;98965.01;;;11.79;65.45
57847;BME280;43675;50.030;21.952;2022-09-01T03:36:37;98963.55;;;11.76;65.47
57847;BME280;43675;50.030;21.952;2022-09-01T03:39:03;98968.33;;;11.74;65.60
57847;BME280;43675;50.030;21.952;2022-09-01T03:41:29;98973.39;;;11.73;65.76
57847;BME280;43675;50.030;21.952;2022-09-01T03:43:56;98971.11;;;11.70;65.88
57847;BME280;43675;50.030;21.952;2022-09-01T03:46:28;98975.86;;;11.68;65.96
57847;BME280;43675;50.030;21.952;2022-09-01T03:48:56;98974.13;;;11.65;66.00
57847;BME280;43675;50.030;21.952;2022-09-01T03:51:23;98973.02;;;11.63;66.18
57847;BME280;43675;50.030;21.952;2022-09-01T03:53:51;98980.25;;;11.63;66.21
57847;BME280;43675;50.030;21.952;2022-09-01T03:56:17;98978.59;;;11.62;66.34
57847;BME280;43675;50.030;21.952;2022-09-01T03:58:42;98982.86;;;11.60;66.46
57847;BME280;43675;50.030;21.952;2022-09-01T04:01:15;98976.66;;;11.60;66.51
57847;BME280;43675;50.030;21.952;2022-09-01T04:03:47;98985.83;;;11.61;66.54
57847;BME280;43675;50.030;21.952;2022-09-01T04:06:14;98982.86;;;11.60;66.58
57847;BME280;43675;50.030;21.952;2022-09-01T04:08:40;98987.09;;;11.59;66.60
57847;BME280;43675;50.030;21.952;2022-09-01T04:11:12;98981.20;;;11.59;66.65
57847;BME280;43675;50.030;21.952;2022-09-01T04:13:39;98986.06;;;11.60;66.72
57847;BME280;43675;50.030;21.952;2022-09-01T04:16:06;98992.47;;;11.59;66.77
57847;BME280;43675;50.030;21.952;2022-09-01T04:18:34;98995.98;;;11.59;66.82
57847;BME280;43675;50.030;21.952;2022-09-01T04:21:00;98986.34;;;11.61;66.85
57847;BME280;43675;50.030;21.952;2022-09-01T04:28:31;98989.63;;;11.69;66.87
57847;BME280;43675;50.030;21.952;2022-09-01T04:30:57;98990.67;;;11.75;66.84
57847;BME280;43675;50.030;21.952;2022-09-01T04:33:25;98992.48;;;11.81;66.84
57847;BME280;43675;50.030;21.952;2022-09-01T04:35:51;98987.38;;;11.89;66.86
57847;BME280;43675;50.030;21.952;2022-09-01T04:38:17;98989.09;;;11.99;66.81
57847;BME280;43675;50.030;21.952;2022-09-01T04:40:42;98989.13;;;12.08;66.69
57847;BME280;43675;50.030;21.952;2022-09-01T04:43:08;98989.39;;;12.15;66.50
57847;BME280;43675;50.030;21.952;2022-09-01T04:45:35;98990.41;;;12.21;66.49
57847;BME280;43675;50.030;21.952;2022-09-01T04:48:07;98988.41;;;12.25;66.44
57847;BME280;43675;50.030;21.952;2022-09-01T04:50:33;98993.79;;;12.25;66.49
57847;BME280;43675;50.030;21.952;2022-09-01T04:53:00;98987.66;;;12.27;66.48
57847;BME280;43675;50.030;21.952;2022-09-01T04:55:36;98993.66;;;12.29;66.50
57847;BME280;43675;50.030;21.952;2022-09-01T04:58:02;98989.63;;;12.29;66.58
57847;BME280;43675;50.030;21.952;2022-09-01T05:00:29;98983.48;;;12.31;66.61
57847;BME280;43675;50.030;21.952;2022-09-01T05:03:01;98985.22;;;12.35;66.58
57847;BME280;43675;50.030;21.952;2022-09-01T05:05:43;98989.88;;;12.37;66.61
57847;BME280;43675;50.030;21.952;2022-09-01T05:08:06;98983.98;;;12.38;66.63
57847;BME280;43675;50.030;21.952;2022-09-01T05:10:31;98987.26;;;12.40;66.69
57847;BME280;43675;50.030;21.952;2022-09-01T05:12:57;98991.03;;;12.48;66.67
57847;BME280;43675;50.030;21.952;2022-09-01T05:15:22;98984.27;;;12.54;66.63
57847;BME280;43675;50.030;21.952;2022-09-01T05:17:48;98982.93;;;12.63;66.47
57847;BME280;43675;50.030;21.952;2022-09-01T05:20:21;98978.92;;;12.72;66.35
57847;BME280;43675;50.030;21.952;2022-09-01T05:22:46;98976.98;;;12.79;66.28
57847;BME280;43675;50.030;21.952;2022-09-01T05:25:12;98984.20;;;12.86;66.10
57847;BME280;43675;50.030;21.952;2022-09-01T05:27:40;98982.16;;;12.90;66.02
57847;BME280;43675;50.030;21.952;2022-09-01T05:30:07;98983.98;;;12.96;65.93
57847;BME280;43675;50.030;21.952;2022-09-01T05:32:35;98983.39;;;13.03;65.83
57847;BME280;43675;50.030;21.952;2022-09-01T05:35:01;98990.81;;;13.08;65.71
57847;BME280;43675;50.030;21.952;2022-09-01T05:37:26;98982.52;;;13.09;65.65
57847;BME280;43675;50.030;21.952;2022-09-01T05:39:52;98987.34;;;13.16;65.53
57847;BME280;43675;50.030;21.952;2022-09-01T05:42:17;98987.41;;;13.19;65.48
57847;BME280;43675;50.030;21.952;2022-09-01T05:44:43;98986.44;;;13.22;65.37
57847;BME280;43675;50.030;21.952;2022-09-01T05:47:09;98981.58;;;13.31;65.28
57847;BME280;43675;50.030;21.952;2022-09-01T05:49:34;98987.65;;;13.36;65.18
57847;BME280;43675;50.030;21.952;2022-09-01T05:52:00;98986.68;;;13.48;65.11
57847;BME280;43675;50.030;21.952;2022-09-01T05:54:32;98990.23;;;13.60;64.82
57847;BME280;43675;50.030;21.952;2022-09-01T05:56:58;98986.56;;;13.73;64.42
57847;BME280;43675;50.030;21.952;2022-09-01T05:59:24;98981.16;;;13.82;64.26
57847;BME280;43675;50.030;21.952;2022-09-01T06:01:56;98987.59;;;13.90;64.03
57847;BME280;43675;50.030;21.952;2022-09-01T06:04:29;98991.91;;;14.00;63.74
57847;BME280;43675;50.030;21.952;2022-09-01T06:06:54;98996.91;;;14.15;63.69
57847;BME280;43675;50.030;21.952;2022-09-01T06:09:20;98999.62;;;14.36;63.36
57847;BME280;43675;50.030;21.952;2022-09-01T06:11:46;99000.56;;;14.50;62.82
57847;BME280;43675;50.030;21.952;2022-09-01T06:14:15;98998.80;;;14.56;62.40
57847;BME280;43675;50.030;21.952;2022-09-01T06:16:41;98999.31;;;14.55;62.23
57847;BME280;43675;50.030;21.952;2022-09-01T06:19:06;99010.12;;;14.55;62.32
57847;BME280;43675;50.030;21.952;2022-09-01T06:21:32;99011.83;;;14.59;62.13
57847;BME280;43675;50.030;21.952;2022-09-01T06:23:58;99005.73;;;14.63;62.07
57847;BME280;43675;50.030;21.952;2022-09-01T06:26:28;99005.44;;;14.74;62.06
57847;BME280;43675;50.030;21.952;2022-09-01T06:28:57;99001.23;;;14.90;62.03
57847;BME280;43675;50.030;21.952;2022-09-01T06:31:25;98997.38;;;15.09;61.70
57847;BME280;43675;50.030;21.952;2022-09-01T06:33:52;99001.52;;;15.26;61.22
57847;BME280;43675;50.030;21.952;2022-09-01T06:36:22;99005.03;;;15.38;61.02
57847;BME280;43675;50.030;21.952;2022-09-01T06:38:49;99007.83;;;15.52;60.67
57847;BME280;43675;50.030;21.952;2022-09-01T06:41:15;99011.91;;;15.66;60.38
57847;BME280;43675;50.030;21.952;2022-09-01T06:43:41;99015.55;;;15.86;60.03
57847;BME280;43675;50.030;21.952;2022-09-01T06:46:08;99014.72;;;16.11;59.85
57847;BME280;43675;50.030;21.952;2022-09-01T06:48:34;99019.27;;;16.39;59.19
57847;BME280;43675;50.030;21.952;2022-09-01T06:51:01;99013.31;;;16.68;58.54
57847;BME280;43675;50.030;21.952;2022-09-01T06:53:29;99020.55;;;16.95;57.99
57847;BME280;43675;50.030;21.952;2022-09-01T06:56:02;99015.17;;;17.17;57.28
57847;BME280;43675;50.030;21.952;2022-09-01T06:58:28;99020.23;;;17.28;56.97
57847;BME280;43675;50.030;21.952;2022-09-01T07:00:53;99011.69;;;17.38;56.65
57847;BME280;43675;50.030;21.952;2022-09-01T07:03:19;99019.86;;;17.41;56.25
57847;BME280;43675;50.030;21.952;2022-09-01T07:05:51;99021.48;;;17.39;56.04
57847;BME280;43675;50.030;21.952;2022-09-01T07:08:17;99017.86;;;17.34;55.92
57847;BME280;43675;50.030;21.952;2022-09-01T07:10:45;99018.91;;;17.30;55.98
57847;BME280;43675;50.030;21.952;2022-09-01T07:13:13;99023.23;;;17.29;55.88
57847;BME280;43675;50.030;21.952;2022-09-01T07:15:39;99027.16;;;17.21;55.72
57847;BME280;43675;50.030;21.952;2022-09-01T07:18:05;99031.06;;;17.09;55.93
57847;BME280;43675;50.030;21.952;2022-09-01T07:20:31;99036.25;;;16.93;56.07
57847;BME280;43675;50.030;21.952;2022-09-01T07:22:57;99034.06;;;16.76;56.34
57847;BME280;43675;50.030;21.952;2022-09-01T07:25:22;99033.34;;;16.67;56.78
57847;BME280;43675;50.030;21.952;2022-09-01T07:27:48;99028.41;;;16.64;57.00
57847;BME280;43675;50.030;21.952;2022-09-01T07:30:15;99037.38;;;16.64;56.91
57847;BME280;43675;50.030;21.952;2022-09-01T07:32:41;99038.59;;;16.57;56.93
57847;BME280;43675;50.030;21.952;2022-09-01T07:35:08;99041.67;;;16.48;57.07
57847;BME280;43675;50.030;21.952;2022-09-01T07:37:34;99043.71;;;16.41;57.16
57847;BME280;43675;50.030;21.952;2022-09-01T07:40:00;99041.09;;;16.32;57.38
57847;BME280;43675;50.030;21.952;2022-09-01T07:42:26;99044.45;;;16.23;57.51
57847;BME280;43675;50.030;21.952;2022-09-01T07:44:51;99039.42;;;16.15;57.72
57847;BME280;43675;50.030;21.952;2022-09-01T07:47:23;99043.14;;;16.11;57.76
57847;BME280;43675;50.030;21.952;2022-09-01T07:49:49;99044.20;;;16.10;57.83
57847;BME280;43675;50.030;21.952;2022-09-01T07:52:14;99046.12;;;16.12;57.82
57847;BME280;43675;50.030;21.952;2022-09-01T07:54:40;99048.89;;;16.15;57.84
57847;BME280;43675;50.030;21.952;2022-09-01T07:57:05;99049.16;;;16.16;57.72
57847;BME280;43675;50.030;21.952;2022-09-01T07:59:31;99044.01;;;16.14;57.71
57847;BME280;43675;50.030;21.952;2022-09-01T08:01:57;99036.98;;;16.16;57.75
57847;BME280;43675;50.030;21.952;2022-09-01T08:04:29;99031.67;;;16.21;57.92
57847;BME280;43675;50.030;21.952;2022-09-01T08:07:02;99037.33;;;16.33;57.70
57847;BME280;43675;50.030;21.952;2022-09-01T08:09:27;99038.63;;;16.45;57.15
57847;BME280;43675;50.030;21.952;2022-09-01T08:12:00;99026.87;;;16.53;57.14
57847;BME280;43675;50.030;21.952;2022-09-01T08:14:26;99027.09;;;16.66;56.83
57847;BME280;43675;50.030;21.952;2022-09-01T08:16:52;99027.11;;;16.83;56.48
57847;BME280;43675;50.030;21.952;2022-09-01T08:19:17;99024.84;;;16.94;56.17
57847;BME280;43675;50.030;21.952;2022-09-01T08:21:43;99020.89;;;17.01;56.07
57847;BME280;43675;50.030;21.952;2022-09-01T08:24:09;99031.73;;;17.18;55.88
57847;BME280;43675;50.030;21.952;2022-09-01T08:26:34;99015.66;;;17.31;55.59
57847;BME280;43675;50.030;21.952;2022-09-01T08:29:00;99019.94;;;17.46;54.91
57847;BME280;43675;50.030;21.952;2022-09-01T08:31:25;99021.69;;;17.55;54.16
57847;BME280;43675;50.030;21.952;2022-09-01T08:33:51;99026.05;;;17.56;53.88
57847;BME280;43675;50.030;21.952;2022-09-01T08:36:17;99021.27;;;17.60;53.80
57847;BME280;43675;50.030;21.952;2022-09-01T08:38:43;99018.65;;;17.68;53.98
57847;BME280;43675;50.030;21.952;2022-09-01T08:44:00;99031.77;;;17.98;53.24
57847;BME280;43675;50.030;21.952;2022-09-01T08:46:32;99020.77;;;18.09;53.07
57847;BME280;43675;50.030;21.952;2022-09-01T08:49:22;99020.39;;;18.25;52.53
57847;BME280;43675;50.030;21.952;2022-09-01T08:52:10;99013.22;;;18.40;52.23
57847;BME280;43675;50.030;21.952;2022-09-01T08:54:59;99015.27;;;18.53;51.83
57847;BME280;43675;50.030;21.952;2022-09-01T08:57:39;99009.66;;;18.62;51.76
57847;BME280;43675;50.030;21.952;2022-09-01T09:00:08;98989.88;;;18.71;51.89
57847;BME280;43675;50.030;21.952;2022-09-01T09:08:47;98986.78;;;18.89;50.38
57847;BME280;43675;50.030;21.952;2022-09-01T09:11:40;98991.94;;;18.91;50.24
57847;BME280;43675;50.030;21.952;2022-09-01T09:16:53;98982.52;;;19.06;49.42
57847;BME280;43675;50.030;21.952;2022-09-01T09:19:38;98978.49;;;19.14;49.16
57847;BME280;43675;50.030;21.952;2022-09-01T09:22:07;98979.94;;;19.26;49.13
57847;BME280;43675;50.030;21.952;2022-09-01T09:27:08;98978.16;;;19.42;48.17
57847;BME280;43675;50.030;21.952;2022-09-01T09:29:34;98967.27;;;19.45;47.96
57847;BME280;43675;50.030;21.952;2022-09-01T09:32:05;98974.93;;;19.50;47.65
57847;BME280;43675;50.030;21.952;2022-09-01T09:34:35;98969.52;;;19.60;47.34
57847;BME280;43675;50.030;21.952;2022-09-01T09:40:11;98971.22;;;19.76;46.30
57847;BME280;43675;50.030;21.952;2022-09-01T09:42:38;98968.50;;;19.76;45.98
57847;BME280;43675;50.030;21.952;2022-09-01T09:47:49;98981.11;;;20.00;44.90
57847;BME280;43675;50.030;21.952;2022-09-01T09:50:35;98965.59;;;20.01;43.97
57847;BME280;43675;50.030;21.952;2022-09-01T09:53:26;98965.59;;;20.01;43.97
57847;BME280;43675;50.030;21.952;2022-09-01T09:55:59;98978.13;;;20.02;43.33
57847;BME280;43675;50.030;21.952;2022-09-01T09:58:33;98971.32;;;19.99;43.22
57847;BME280;43675;50.030;21.952;2022-09-01T10:03:48;98969.45;;;20.15;43.45
57847;BME280;43675;50.030;21.952;2022-09-01T10:06:48;98965.66;;;20.26;44.28
57847;BME280;43675;50.030;21.952;2022-09-01T10:08:48;98966.25;;;20.56;42.73
57847;BME280;43675;50.030;21.952;2022-09-01T10:11:32;98962.97;;;20.87;42.18
57847;BME280;43675;50.030;21.952;2022-09-01T10:13:54;98960.80;;;21.16;41.59
57847;BME280;43675;50.030;21.952;2022-09-01T10:16:31;98964.56;;;21.36;40.75
57847;BME280;43675;50.030;21.952;2022-09-01T10:18:59;98967.82;;;21.38;40.86
57847;BME280;43675;50.030;21.952;2022-09-01T10:21:36;98967.26;;;21.41;40.80
57847;BME280;43675;50.030;21.952;2022-09-01T10:24:07;98964.53;;;21.41;40.46
57847;BME280;43675;50.030;21.952;2022-09-01T10:26:38;98973.55;;;21.44;40.69
57847;BME280;43675;50.030;21.952;2022-09-01T10:29:18;98988.27;;;21.45;39.91
57847;BME280;43675;50.030;21.952;2022-09-01T10:31:44;98977.69;;;21.29;39.39
57847;BME280;43675;50.030;21.952;2022-09-01T10:34:12;98970.05;;;21.03;39.92
57847;BME280;43675;50.030;21.952;2022-09-01T10:36:41;98968.97;;;20.86;39.84
57847;BME280;43675;50.030;21.952;2022-09-01T10:39:12;98971.73;;;20.66;39.89
57847;BME280;43675;50.030;21.952;2022-09-01T10:41:53;98963.52;;;20.48;40.07
57847;BME280;43675;50.030;21.952;2022-09-01T10:44:27;98970.59;;;20.47;40.08
57847;BME280;43675;50.030;21.952;2022-09-01T10:46:53;98959.17;;;20.57;40.26
57847;BME280;43675;50.030;21.952;2022-09-01T10:51:57;98958.89;;;20.84;38.94
57847;BME280;43675;50.030;21.952;2022-09-01T10:59:50;98951.50;;;21.05;39.16
57847;BME280;43675;50.030;21.952;2022-09-01T11:02:17;98943.02;;;21.21;39.08
57847;BME280;43675;50.030;21.952;2022-09-01T11:13:07;98936.83;;;21.73;36.96
57847;BME280;43675;50.030;21.952;2022-09-01T11:15:40;98939.49;;;21.93;36.62
57847;BME280;43675;50.030;21.952;2022-09-01T11:18:08;98935.80;;;22.18;35.91
57847;BME280;43675;50.030;21.952;2022-09-01T11:20:38;98933.47;;;22.35;35.95
57847;BME280;43675;50.030;21.952;2022-09-01T11:23:28;98947.39;;;22.41;35.74
57847;BME280;43675;50.030;21.952;2022-09-01T11:25:57;98933.96;;;22.44;35.89
57847;BME280;43675;50.030;21.952;2022-09-01T11:34:00;98927.39;;;22.45;35.73
57847;BME280;43675;50.030;21.952;2022-09-01T11:36:31;98929.83;;;22.47;35.65
57847;BME280;43675;50.030;21.952;2022-09-01T11:42:02;98936.23;;;22.74;34.19
57847;BME280;43675;50.030;21.952;2022-09-01T11:44:44;98949.42;;;22.59;33.81
57847;BME280;43675;50.030;21.952;2022-09-01T11:47:35;98945.17;;;22.45;34.16
57847;BME280;43675;50.030;21.952;2022-09-01T11:50:03;98937.48;;;22.50;34.18
57847;BME280;43675;50.030;21.952;2022-09-01T11:52:32;98930.10;;;22.48;34.18
57847;BME280;43675;50.030;21.952;2022-09-01T11:54:58;98936.94;;;22.48;34.05
57847;BME280;43675;50.030;21.952;2022-09-01T11:57:36;98935.56;;;22.48;34.34
57847;BME280;43675;50.030;21.952;2022-09-01T12:00:08;98933.14;;;22.46;34.54
57847;BME280;43675;50.030;21.952;2022-09-01T12:02:40;98939.95;;;22.49;35.11
57847;BME280;43675;50.030;21.952;2022-09-01T12:07:40;98936.31;;;22.92;34.19
57847;BME280;43675;50.030;21.952;2022-09-01T12:10:23;98935.14;;;23.01;33.45
57847;BME280;43675;50.030;21.952;2022-09-01T12:12:43;98943.67;;;22.94;33.46
57847;BME280;43675;50.030;21.952;2022-09-01T12:15:22;98931.74;;;22.83;33.06
57847;BME280;43675;50.030;21.952;2022-09-01T12:17:47;98939.75;;;22.74;32.77
57847;BME280;43675;50.030;21.952;2022-09-01T12:20:28;98939.03;;;22.61;33.58
57847;BME280;43675;50.030;21.952;2022-09-01T12:22:54;98937.94;;;22.59;33.98
57847;BME280;43675;50.030;21.952;2022-09-01T12:25:30;98940.00;;;22.39;34.09
57847;BME280;43675;50.030;21.952;2022-09-01T12:27:59;98938.80;;;22.16;34.33
57847;BME280;43675;50.030;21.952;2022-09-01T12:30:25;98935.13;;;21.94;34.66
57847;BME280;43675;50.030;21.952;2022-09-01T12:32:52;98930.55;;;21.75;34.93
57847;BME280;43675;50.030;21.952;2022-09-01T12:35:24;98934.67;;;21.64;35.03
57847;BME280;43675;50.030;21.952;2022-09-01T12:37:51;98932.02;;;21.49;34.70
57847;BME280;43675;50.030;21.952;2022-09-01T12:40:34;98926.89;;;21.35;34.70
57847;BME280;43675;50.030;21.952;2022-09-01T12:43:00;98926.09;;;21.32;34.43
57847;BME280;43675;50.030;21.952;2022-09-01T12:45:39;98920.36;;;21.26;34.02
57847;BME280;43675;50.030;21.952;2022-09-01T12:48:30;98919.25;;;21.30;34.00
57847;BME280;43675;50.030;21.952;2022-09-01T12:50:59;98918.39;;;21.42;33.01
57847;BME280;43675;50.030;21.952;2022-09-01T12:53:27;98912.59;;;21.58;33.00
57847;BME280;43675;50.030;21.952;2022-09-01T12:56:15;98910.81;;;21.85;33.05
57847;BME280;43675;50.030;21.952;2022-09-01T12:58:35;98907.42;;;22.11;33.18
57847;BME280;43675;50.030;21.952;2022-09-01T13:01:06;98904.24;;;22.33;32.69
57847;BME280;43675;50.030;21.952;2022-09-01T13:03:32;98897.66;;;22.36;32.74
57847;BME280;43675;50.030;21.952;2022-09-01T13:06:00;98909.34;;;22.44;32.78
57847;BME280;43675;50.030;21.952;2022-09-01T13:08:33;98899.41;;;22.56;32.79
57847;BME280;43675;50.030;21.952;2022-09-01T13:11:02;98893.00;;;22.71;32.19
57847;BME280;43675;50.030;21.952;2022-09-01T13:13:34;98892.96;;;22.76;32.11
57847;BME280;43675;50.030;21.952;2022-09-01T13:16:01;98890.27;;;22.71;32.20
57847;BME280;43675;50.030;21.952;2022-09-01T13:18:33;98901.48;;;22.72;31.64
57847;BME280;43675;50.030;21.952;2022-09-01T13:20:59;98889.20;;;22.64;31.64
57847;BME280;43675;50.030;21.952;2022-09-01T13:23:32;98900.42;;;22.65;31.53
57847;BME280;43675;50.030;21.952;2022-09-01T13:25:58;98907.34;;;22.55;31.41
57847;BME280;43675;50.030;21.952;2022-09-01T13:28:25;98908.70;;;22.55;31.57
57847;BME280;43675;50.030;21.952;2022-09-01T13:30:59;98904.05;;;22.58;31.76
57847;BME280;43675;50.030;21.952;2022-09-01T13:33:26;98893.82;;;22.71;31.46
57847;BME280;43675;50.030;21.952;2022-09-01T13:35:52;98895.39;;;22.80;31.42
57847;BME280;43675;50.030;21.952;2022-09-01T13:38:19;98901.88;;;22.89;30.87
57847;BME280;43675;50.030;21.952;2022-09-01T13:40:46;98914.16;;;22.91;30.99
57847;BME280;43675;50.030;21.952;2022-09-01T13:43:14;98917.13;;;22.95;31.14
57847;BME280;43675;50.030;21.952;2022-09-01T13:45:40;98903.67;;;22.98;30.53
57847;BME280;43675;50.030;21.952;2022-09-01T13:48:07;98889.52;;;22.91;30.80
57847;BME280;43675;50.030;21.952;2022-09-01T13:50:33;98890.30;;;22.94;30.90
57847;BME280;43675;50.030;21.952;2022-09-01T13:52:59;98882.88;;;22.97;30.84
57847;BME280;43675;50.030;21.952;2022-09-01T13:55:27;98890.85;;;22.94;30.46